sensor_id;sensor_type;location;lat;lon;timestamp;P1;durP1;ratioP1;P2;durP2;ratioP2
1026;SDS011;502;48.746;9.214;2024-01-30T00:01:46;7.90;;;6.23;;
1026;SDS011;502;48.746;9.214;2024-01-30T00:04:14;6.60;;;6.00;;
1026;SDS011;502;48.746;9.214;2024-01-30T00:06:41;8.37;;;6.20;;
1026;SDS011;502;48.746;9.214;2024-01-30T00:09:08;7.40;;;6.50;;
1026;SDS011;502;48.746;9.214;2024-01-30T00:11:35;8.23;;;6.83;;
1026;SDS011;502;48.746;9.214;2024-01-30T00:14:01;8.30;;;6.80;;
1026;SDS011;502;48.746;9.214;2024-01-30T00:16:28;6.40;;;5.37;;
1026;SDS011;502;48.746;9.214;2024-01-30T00:18:55;7.77;;;6.53;;
1026;SDS011;502;48.746;9.214;2024-01-30T00:21:23;6.80;;;6.10;;
1026;SDS011;502;48.746;9.214;2024-01-30T00:23:49;8.47;;;6.60;;
1026;SDS011;502;48.746;9.214;2024-01-30T00:26:16;7.67;;;5.70;;
1026;SDS011;502;48.746;9.214;2024-01-30T00:28:43;6.20;;;5.60;;
1026;SDS011;502;48.746;9.214;2024-01-30T00:31:09;7.53;;;6.03;;
1026;SDS011;502;48.746;9.214;2024-01-30T00:33:37;6.73;;;5.53;;
1026;SDS011;502;48.746;9.214;2024-01-30T00:36:04;7.37;;;6.13;;
1026;SDS011;502;48.746;9.214;2024-01-30T00:38:32;6.80;;;6.07;;
1026;SDS011;502;48.746;9.214;2024-01-30T00:40:59;6.70;;;5.57;;
1026;SDS011;502;48.746;9.214;2024-01-30T00:43:27;7.50;;;6.07;;
1026;SDS011;502;48.746;9.214;2024-01-30T00:45:53;8.37;;;6.50;;
1026;SDS011;502;48.746;9.214;2024-01-30T00:48:20;8.63;;;5.87;;
1026;SDS011;502;48.746;9.214;2024-01-30T00:50:47;7.50;;;5.93;;
1026;SDS011;502;48.746;9.214;2024-01-30T00:53:13;7.17;;;6.47;;
1026;SDS011;502;48.746;9.214;2024-01-30T00:55:41;8.03;;;6.27;;
1026;SDS011;502;48.746;9.214;2024-01-30T00:58:08;6.90;;;5.47;;
1026;SDS011;502;48.746;9.214;2024-01-30T01:00:34;6.20;;;5.57;;
1026;SDS011;502;48.746;9.214;2024-01-30T01:03:01;8.13;;;6.10;;
1026;SDS011;502;48.746;9.214;2024-01-30T01:05:27;7.83;;;6.03;;
1026;SDS011;502;48.746;9.214;2024-01-30T01:07:54;6.37;;;5.77;;
1026;SDS011;502;48.746;9.214;2024-01-30T01:10:21;6.63;;;5.93;;
1026;SDS011;502;48.746;9.214;2024-01-30T01:12:49;6.83;;;6.13;;
1026;SDS011;502;48.746;9.214;2024-01-30T01:15:15;8.33;;;6.37;;
1026;SDS011;502;48.746;9.214;2024-01-30T01:17:42;6.80;;;6.10;;
1026;SDS011;502;48.746;9.214;2024-01-30T01:20:09;8.77;;;6.60;;
1026;SDS011;502;48.746;9.214;2024-01-30T01:22:36;7.90;;;6.63;;
1026;SDS011;502;48.746;9.214;2024-01-30T01:25:04;11.40;;;7.50;;
1026;SDS011;502;48.746;9.214;2024-01-30T01:27:32;8.73;;;7.07;;
1026;SDS011;502;48.746;9.214;2024-01-30T01:30:00;8.30;;;7.37;;
1026;SDS011;502;48.746;9.214;2024-01-30T01:32:29;9.23;;;7.87;;
1026;SDS011;502;48.746;9.214;2024-01-30T01:34:56;10.20;;;8.37;;
1026;SDS011;502;48.746;9.214;2024-01-30T01:37:22;9.43;;;7.53;;
1026;SDS011;502;48.746;9.214;2024-01-30T01:39:51;9.10;;;7.67;;
1026;SDS011;502;48.746;9.214;2024-01-30T01:42:18;8.70;;;7.80;;
1026;SDS011;502;48.746;9.214;2024-01-30T01:44:44;10.63;;;8.03;;
1026;SDS011;502;48.746;9.214;2024-01-30T01:47:12;11.67;;;9.77;;
1026;SDS011;502;48.746;9.214;2024-01-30T01:49:38;11.80;;;8.77;;
1026;SDS011;502;48.746;9.214;2024-01-30T01:52:05;9.93;;;8.33;;
1026;SDS011;502;48.746;9.214;2024-01-30T01:54:32;8.00;;;7.20;;
1026;SDS011;502;48.746;9.214;2024-01-30T01:56:59;9.67;;;7.70;;
1026;SDS011;502;48.746;9.214;2024-01-30T01:59:26;12.07;;;8.50;;
1026;SDS011;502;48.746;9.214;2024-01-30T02:01:54;8.70;;;7.33;;
1026;SDS011;502;48.746;9.214;2024-01-30T02:04:22;8.60;;;7.20;;
1026;SDS011;502;48.746;9.214;2024-01-30T02:06:49;12.00;;;7.83;;
1026;SDS011;502;48.746;9.214;2024-01-30T02:09:15;8.33;;;7.43;;
1026;SDS011;502;48.746;9.214;2024-01-30T02:11:42;10.43;;;8.23;;
1026;SDS011;502;48.746;9.214;2024-01-30T02:14:09;9.23;;;8.07;;
1026;SDS011;502;48.746;9.214;2024-01-30T02:16:35;8.17;;;7.13;;
1026;SDS011;502;48.746;9.214;2024-01-30T02:19:02;8.53;;;7.13;;
1026;SDS011;502;48.746;9.214;2024-01-30T02:21:30;10.90;;;8.73;;
1026;SDS011;502;48.746;9.214;2024-01-30T02:23:56;11.90;;;8.50;;
1026;SDS011;502;48.746;9.214;2024-01-30T02:26:24;10.10;;;8.00;;
1026;SDS011;502;48.746;9.214;2024-01-30T02:28:50;10.60;;;7.67;;
1026;SDS011;502;48.746;9.214;2024-01-30T02:31:17;10.23;;;9.13;;
1026;SDS011;502;48.746;9.214;2024-01-30T02:33:43;10.00;;;9.00;;
1026;SDS011;502;48.746;9.214;2024-01-30T02:36:10;9.40;;;8.37;;
1026;SDS011;502;48.746;9.214;2024-01-30T02:38:38;8.43;;;7.27;;
1026;SDS011;502;48.746;9.214;2024-01-30T02:41:04;9.97;;;8.27;;
1026;SDS011;502;48.746;9.214;2024-01-30T02:43:31;9.10;;;7.73;;
1026;SDS011;502;48.746;9.214;2024-01-30T02:45:57;9.80;;;8.37;;
1026;SDS011;502;48.746;9.214;2024-01-30T02:48:25;10.20;;;8.50;;
1026;SDS011;502;48.746;9.214;2024-01-30T02:50:51;8.80;;;7.70;;
1026;SDS011;502;48.746;9.214;2024-01-30T02:53:18;8.60;;;7.47;;
1026;SDS011;502;48.746;9.214;2024-01-30T02:55:46;8.93;;;7.07;;
1026;SDS011;502;48.746;9.214;2024-01-30T02:58:12;11.00;;;9.10;;
1026;SDS011;502;48.746;9.214;2024-01-30T03:00:39;11.00;;;8.80;;
1026;SDS011;502;48.746;9.214;2024-01-30T03:03:05;9.63;;;8.63;;
1026;SDS011;502;48.746;9.214;2024-01-30T03:05:32;11.60;;;9.03;;
1026;SDS011;502;48.746;9.214;2024-01-30T03:07:58;10.83;;;7.97;;
1026;SDS011;502;48.746;9.214;2024-01-30T03:10:25;9.60;;;7.90;;
1026;SDS011;502;48.746;9.214;2024-01-30T03:12:53;9.03;;;7.50;;
1026;SDS011;502;48.746;9.214;2024-01-30T03:15:19;11.27;;;8.17;;
1026;SDS011;502;48.746;9.214;2024-01-30T03:17:46;10.87;;;7.33;;
1026;SDS011;502;48.746;9.214;2024-01-30T03:20:12;10.93;;;8.10;;
1026;SDS011;502;48.746;9.214;2024-01-30T03:22:39;9.03;;;7.80;;
1026;SDS011;502;48.746;9.214;2024-01-30T03:25:06;11.53;;;9.00;;
1026;SDS011;502;48.746;9.214;2024-01-30T03:27:33;10.27;;;8.37;;
1026;SDS011;502;48.746;9.214;2024-01-30T03:30:01;9.10;;;8.13;;
1026;SDS011;502;48.746;9.214;2024-01-30T03:32:28;9.13;;;7.53;;
1026;SDS011;502;48.746;9.214;2024-01-30T03:34:54;10.80;;;8.10;;
1026;SDS011;502;48.746;9.214;2024-01-30T03:37:21;10.20;;;8.43;;
1026;SDS011;502;48.746;9.214;2024-01-30T03:39:47;9.27;;;8.17;;
1026;SDS011;502;48.746;9.214;2024-01-30T03:42:13;11.27;;;9.00;;
1026;SDS011;502;48.746;9.214;2024-01-30T03:44:40;11.43;;;8.10;;
1026;SDS011;502;48.746;9.214;2024-01-30T03:47:08;10.20;;;8.67;;
1026;SDS011;502;48.746;9.214;2024-01-30T03:49:34;13.27;;;9.37;;
1026;SDS011;502;48.746;9.214;2024-01-30T03:52:01;10.17;;;8.40;;
1026;SDS011;502;48.746;9.214;2024-01-30T03:54:27;11.80;;;8.27;;
1026;SDS011;502;48.746;9.214;2024-01-30T03:56:54;11.80;;;8.87;;
1026;SDS011;502;48.746;9.214;2024-01-30T03:59:20;9.30;;;8.27;;
1026;SDS011;502;48.746;9.214;2024-01-30T04:01:49;10.50;;;8.43;;
1026;SDS011;502;48.746;9.214;2024-01-30T04:04:17;9.43;;;8.43;;
1026;SDS011;502;48.746;9.214;2024-01-30T04:06:44;10.07;;;8.50;;
1026;SDS011;502;48.746;9.214;2024-01-30T04:09:10;11.03;;;9.30;;
1026;SDS011;502;48.746;9.214;2024-01-30T04:11:38;10.00;;;8.13;;
1026;SDS011;502;48.746;9.214;2024-01-30T04:14:04;13.03;;;7.93;;
1026;SDS011;502;48.746;9.214;2024-01-30T04:16:31;10.00;;;8.17;;
1026;SDS011;502;48.746;9.214;2024-01-30T04:18:57;11.20;;;9.00;;
1026;SDS011;502;48.746;9.214;2024-01-30T04:21:25;9.30;;;7.87;;
1026;SDS011;502;48.746;9.214;2024-01-30T04:23:52;11.20;;;9.13;;
1026;SDS011;502;48.746;9.214;2024-01-30T04:26:19;10.20;;;8.60;;
1026;SDS011;502;48.746;9.214;2024-01-30T04:28:46;11.17;;;9.27;;
1026;SDS011;502;48.746;9.214;2024-01-30T04:31:12;12.53;;;9.63;;
1026;SDS011;502;48.746;9.214;2024-01-30T04:33:38;9.97;;;8.80;;
1026;SDS011;502;48.746;9.214;2024-01-30T04:36:07;14.80;;;9.33;;
1026;SDS011;502;48.746;9.214;2024-01-30T04:38:36;11.10;;;9.03;;
1026;SDS011;502;48.746;9.214;2024-01-30T04:41:03;10.20;;;7.97;;
1026;SDS011;502;48.746;9.214;2024-01-30T04:43:30;11.47;;;8.90;;
1026;SDS011;502;48.746;9.214;2024-01-30T04:45:56;9.23;;;8.33;;
1026;SDS011;502;48.746;9.214;2024-01-30T04:48:23;10.50;;;8.20;;
1026;SDS011;502;48.746;9.214;2024-01-30T04:50:49;9.80;;;8.10;;
1026;SDS011;502;48.746;9.214;2024-01-30T04:53:16;13.13;;;8.40;;
1026;SDS011;502;48.746;9.214;2024-01-30T04:55:44;10.53;;;8.17;;
1026;SDS011;502;48.746;9.214;2024-01-30T04:58:10;13.00;;;9.60;;
1026;SDS011;502;48.746;9.214;2024-01-30T05:00:36;12.30;;;9.70;;
1026;SDS011;502;48.746;9.214;2024-01-30T05:03:03;13.47;;;9.23;;
1026;SDS011;502;48.746;9.214;2024-01-30T05:05:30;14.13;;;10.40;;
1026;SDS011;502;48.746;9.214;2024-01-30T05:07:56;14.93;;;10.90;;
1026;SDS011;502;48.746;9.214;2024-01-30T05:10:23;12.50;;;9.70;;
1026;SDS011;502;48.746;9.214;2024-01-30T05:12:51;12.00;;;10.27;;
1026;SDS011;502;48.746;9.214;2024-01-30T05:15:18;11.33;;;10.23;;
1026;SDS011;502;48.746;9.214;2024-01-30T05:17:45;10.00;;;9.00;;
1026;SDS011;502;48.746;9.214;2024-01-30T05:20:12;10.93;;;9.27;;
1026;SDS011;502;48.746;9.214;2024-01-30T05:22:39;11.13;;;9.67;;
1026;SDS011;502;48.746;9.214;2024-01-30T05:25:09;12.77;;;10.47;;
1026;SDS011;502;48.746;9.214;2024-01-30T05:27:36;12.60;;;10.00;;
1026;SDS011;502;48.746;9.214;2024-01-30T05:30:05;13.17;;;10.37;;
1026;SDS011;502;48.746;9.214;2024-01-30T05:32:32;13.03;;;10.73;;
1026;SDS011;502;48.746;9.214;2024-01-30T05:35:00;14.10;;;10.23;;
1026;SDS011;502;48.746;9.214;2024-01-30T05:37:30;12.50;;;10.23;;
1026;SDS011;502;48.746;9.214;2024-01-30T05:39:57;12.57;;;9.90;;
1026;SDS011;502;48.746;9.214;2024-01-30T05:42:23;10.90;;;9.53;;
1026;SDS011;502;48.746;9.214;2024-01-30T05:44:50;11.60;;;9.77;;
1026;SDS011;502;48.746;9.214;2024-01-30T05:47:18;13.70;;;10.87;;
1026;SDS011;502;48.746;9.214;2024-01-30T05:49:44;13.37;;;10.60;;
1026;SDS011;502;48.746;9.214;2024-01-30T05:52:11;11.83;;;10.00;;
1026;SDS011;502;48.746;9.214;2024-01-30T05:54:37;12.70;;;10.03;;
1026;SDS011;502;48.746;9.214;2024-01-30T05:57:04;13.03;;;10.30;;
1026;SDS011;502;48.746;9.214;2024-01-30T05:59:31;14.57;;;11.30;;
1026;SDS011;502;48.746;9.214;2024-01-30T06:01:58;12.63;;;11.30;;
1026;SDS011;502;48.746;9.214;2024-01-30T06:04:25;15.50;;;11.90;;
1026;SDS011;502;48.746;9.214;2024-01-30T06:06:52;15.00;;;12.87;;
1026;SDS011;502;48.746;9.214;2024-01-30T06:09:19;12.80;;;10.73;;
1026;SDS011;502;48.746;9.214;2024-01-30T06:11:45;13.10;;;10.80;;
1026;SDS011;502;48.746;9.214;2024-01-30T06:14:12;14.03;;;10.70;;
1026;SDS011;502;48.746;9.214;2024-01-30T06:16:38;11.60;;;10.00;;
1026;SDS011;502;48.746;9.214;2024-01-30T06:19:05;13.50;;;10.53;;
1026;SDS011;502;48.746;9.214;2024-01-30T06:21:33;10.93;;;9.73;;
1026;SDS011;502;48.746;9.214;2024-01-30T06:24:01;13.20;;;10.10;;
1026;SDS011;502;48.746;9.214;2024-01-30T06:26:28;16.70;;;10.57;;
1026;SDS011;502;48.746;9.214;2024-01-30T06:28:55;11.23;;;9.50;;
1026;SDS011;502;48.746;9.214;2024-01-30T06:31:21;12.57;;;10.13;;
1026;SDS011;502;48.746;9.214;2024-01-30T06:33:50;15.17;;;11.53;;
1026;SDS011;502;48.746;9.214;2024-01-30T06:36:17;13.30;;;9.90;;
1026;SDS011;502;48.746;9.214;2024-01-30T06:38:45;16.73;;;11.30;;
1026;SDS011;502;48.746;9.214;2024-01-30T06:41:11;13.80;;;10.93;;
1026;SDS011;502;48.746;9.214;2024-01-30T06:43:38;13.10;;;11.20;;
1026;SDS011;502;48.746;9.214;2024-01-30T06:46:05;12.03;;;10.53;;
1026;SDS011;502;48.746;9.214;2024-01-30T06:48:31;11.97;;;10.00;;
1026;SDS011;502;48.746;9.214;2024-01-30T06:50:58;12.47;;;10.80;;
1026;SDS011;502;48.746;9.214;2024-01-30T06:53:24;13.83;;;10.80;;
1026;SDS011;502;48.746;9.214;2024-01-30T06:55:56;12.10;;;10.03;;
1026;SDS011;502;48.746;9.214;2024-01-30T06:58:22;12.57;;;9.77;;
1026;SDS011;502;48.746;9.214;2024-01-30T07:00:49;10.53;;;9.43;;
1026;SDS011;502;48.746;9.214;2024-01-30T07:03:15;13.53;;;9.73;;
1026;SDS011;502;48.746;9.214;2024-01-30T07:05:42;11.80;;;9.80;;
1026;SDS011;502;48.746;9.214;2024-01-30T07:08:08;12.23;;;9.50;;
1026;SDS011;502;48.746;9.214;2024-01-30T07:10:35;11.70;;;9.23;;
1026;SDS011;502;48.746;9.214;2024-01-30T07:13:03;13.83;;;10.90;;
1026;SDS011;502;48.746;9.214;2024-01-30T07:15:30;12.93;;;10.03;;
1026;SDS011;502;48.746;9.214;2024-01-30T07:17:57;10.10;;;9.00;;
1026;SDS011;502;48.746;9.214;2024-01-30T07:20:24;10.30;;;9.17;;
1026;SDS011;502;48.746;9.214;2024-01-30T07:22:50;10.57;;;9.47;;
1026;SDS011;502;48.746;9.214;2024-01-30T07:25:17;11.33;;;9.93;;
1026;SDS011;502;48.746;9.214;2024-01-30T07:27:43;14.83;;;10.40;;
1026;SDS011;502;48.746;9.214;2024-01-30T07:30:11;10.93;;;9.20;;
1026;SDS011;502;48.746;9.214;2024-01-30T07:32:38;13.43;;;9.90;;
1026;SDS011;502;48.746;9.214;2024-01-30T07:35:05;11.83;;;10.50;;
1026;SDS011;502;48.746;9.214;2024-01-30T07:37:32;12.07;;;9.90;;
1026;SDS011;502;48.746;9.214;2024-01-30T07:39:58;13.73;;;10.63;;
1026;SDS011;502;48.746;9.214;2024-01-30T07:42:25;14.37;;;11.40;;
1026;SDS011;502;48.746;9.214;2024-01-30T07:44:51;13.67;;;10.80;;
1026;SDS011;502;48.746;9.214;2024-01-30T07:47:19;11.77;;;9.60;;
1026;SDS011;502;48.746;9.214;2024-01-30T07:49:46;11.97;;;9.80;;
1026;SDS011;502;48.746;9.214;2024-01-30T07:52:13;13.70;;;9.93;;
1026;SDS011;502;48.746;9.214;2024-01-30T07:54:39;13.57;;;9.23;;
1026;SDS011;502;48.746;9.214;2024-01-30T07:57:06;11.47;;;10.27;;
1026;SDS011;502;48.746;9.214;2024-01-30T07:59:33;10.80;;;9.70;;
1026;SDS011;502;48.746;9.214;2024-01-30T08:01:59;14.07;;;9.50;;
1026;SDS011;502;48.746;9.214;2024-01-30T08:04:27;12.60;;;9.20;;
1026;SDS011;502;48.746;9.214;2024-01-30T08:06:55;12.60;;;9.13;;
1026;SDS011;502;48.746;9.214;2024-01-30T08:11:10;13.32;;;10.77;;
1026;SDS011;502;48.746;9.214;2024-01-30T08:13:37;11.57;;;10.27;;
1026;SDS011;502;48.746;9.214;2024-01-30T08:16:03;13.13;;;10.00;;
1026;SDS011;502;48.746;9.214;2024-01-30T08:18:31;10.40;;;8.93;;
1026;SDS011;502;48.746;9.214;2024-01-30T08:20:58;9.97;;;8.90;;
1026;SDS011;502;48.746;9.214;2024-01-30T08:23:24;9.57;;;8.37;;
1026;SDS011;502;48.746;9.214;2024-01-30T08:25:50;10.17;;;8.07;;
1026;SDS011;502;48.746;9.214;2024-01-30T08:28:18;10.37;;;9.33;;
1026;SDS011;502;48.746;9.214;2024-01-30T08:30:45;9.93;;;7.90;;
1026;SDS011;502;48.746;9.214;2024-01-30T08:33:11;9.17;;;8.20;;
1026;SDS011;502;48.746;9.214;2024-01-30T08:35:38;12.00;;;9.00;;
1026;SDS011;502;48.746;9.214;2024-01-30T08:38:04;9.70;;;8.27;;
1026;SDS011;502;48.746;9.214;2024-01-30T08:40:31;10.70;;;9.40;;
1026;SDS011;502;48.746;9.214;2024-01-30T08:42:57;10.80;;;8.87;;
1026;SDS011;502;48.746;9.214;2024-01-30T08:45:25;9.70;;;7.80;;
1026;SDS011;502;48.746;9.214;2024-01-30T08:47:52;8.60;;;7.27;;
1026;SDS011;502;48.746;9.214;2024-01-30T08:50:18;9.77;;;8.20;;
1026;SDS011;502;48.746;9.214;2024-01-30T08:52:45;9.23;;;7.97;;
1026;SDS011;502;48.746;9.214;2024-01-30T08:55:11;9.57;;;7.30;;
1026;SDS011;502;48.746;9.214;2024-01-30T08:57:38;9.80;;;8.50;;
1026;SDS011;502;48.746;9.214;2024-01-30T09:00:05;8.50;;;7.00;;
1026;SDS011;502;48.746;9.214;2024-01-30T09:02:35;9.33;;;7.10;;
1026;SDS011;502;48.746;9.214;2024-01-30T09:05:02;8.10;;;7.30;;
1026;SDS011;502;48.746;9.214;2024-01-30T09:07:29;9.87;;;7.80;;
1026;SDS011;502;48.746;9.214;2024-01-30T09:09:55;8.47;;;6.60;;
1026;SDS011;502;48.746;9.214;2024-01-30T09:12:22;8.87;;;6.87;;
1026;SDS011;502;48.746;9.214;2024-01-30T09:14:49;8.40;;;7.60;;
1026;SDS011;502;48.746;9.214;2024-01-30T09:17:16;9.90;;;7.90;;
1026;SDS011;502;48.746;9.214;2024-01-30T09:19:43;9.50;;;8.00;;
1026;SDS011;502;48.746;9.214;2024-01-30T09:22:11;8.20;;;7.30;;
1026;SDS011;502;48.746;9.214;2024-01-30T09:24:38;8.17;;;6.97;;
1026;SDS011;502;48.746;9.214;2024-01-30T09:27:04;8.77;;;7.50;;
1026;SDS011;502;48.746;9.214;2024-01-30T09:29:31;8.30;;;7.13;;
1026;SDS011;502;48.746;9.214;2024-01-30T09:31:59;9.43;;;7.30;;
1026;SDS011;502;48.746;9.214;2024-01-30T09:34:25;9.20;;;8.20;;
1026;SDS011;502;48.746;9.214;2024-01-30T09:36:53;7.83;;;6.87;;
1026;SDS011;502;48.746;9.214;2024-01-30T09:39:20;7.80;;;7.00;;
1026;SDS011;502;48.746;9.214;2024-01-30T09:41:48;7.33;;;6.30;;
1026;SDS011;502;48.746;9.214;2024-01-30T09:44:15;7.07;;;6.20;;
1026;SDS011;502;48.746;9.214;2024-01-30T09:46:42;6.63;;;5.97;;
1026;SDS011;502;48.746;9.214;2024-01-30T09:49:09;6.97;;;6.27;;
1026;SDS011;502;48.746;9.214;2024-01-30T09:51:36;10.40;;;5.87;;
1026;SDS011;502;48.746;9.214;2024-01-30T09:54:04;7.87;;;5.87;;
1026;SDS011;502;48.746;9.214;2024-01-30T09:56:30;7.63;;;6.43;;
1026;SDS011;502;48.746;9.214;2024-01-30T09:58:57;6.73;;;5.70;;
1026;SDS011;502;48.746;9.214;2024-01-30T10:01:23;9.73;;;5.93;;
1026;SDS011;502;48.746;9.214;2024-01-30T10:03:52;7.70;;;6.80;;
1026;SDS011;502;48.746;9.214;2024-01-30T10:06:19;8.53;;;6.20;;
1026;SDS011;502;48.746;9.214;2024-01-30T10:08:47;7.87;;;6.27;;
1026;SDS011;502;48.746;9.214;2024-01-30T10:11:15;9.80;;;6.47;;
1026;SDS011;502;48.746;9.214;2024-01-30T10:13:42;9.13;;;6.13;;
1026;SDS011;502;48.746;9.214;2024-01-30T10:16:08;7.00;;;6.30;;
1026;SDS011;502;48.746;9.214;2024-01-30T10:18:35;10.90;;;6.77;;
1026;SDS011;502;48.746;9.214;2024-01-30T10:21:02;9.30;;;6.53;;
1026;SDS011;502;48.746;9.214;2024-01-30T10:23:29;6.50;;;5.80;;
1026;SDS011;502;48.746;9.214;2024-01-30T10:25:55;7.13;;;6.43;;
1026;SDS011;502;48.746;9.214;2024-01-30T10:28:26;8.17;;;6.00;;
1026;SDS011;502;48.746;9.214;2024-01-30T10:30:58;7.63;;;6.23;;
1026;SDS011;502;48.746;9.214;2024-01-30T10:33:25;7.13;;;6.13;;
1026;SDS011;502;48.746;9.214;2024-01-30T10:35:53;8.57;;;6.37;;
1026;SDS011;502;48.746;9.214;2024-01-30T10:38:21;6.43;;;5.83;;
1026;SDS011;502;48.746;9.214;2024-01-30T10:40:49;8.10;;;6.23;;
1026;SDS011;502;48.746;9.214;2024-01-30T10:43:17;9.07;;;5.90;;
1026;SDS011;502;48.746;9.214;2024-01-30T10:45:49;8.60;;;5.23;;
1026;SDS011;502;48.746;9.214;2024-01-30T10:48:20;6.80;;;5.13;;
1026;SDS011;502;48.746;9.214;2024-01-30T10:50:52;7.50;;;5.20;;
1026;SDS011;502;48.746;9.214;2024-01-30T10:53:20;6.03;;;5.43;;
1026;SDS011;502;48.746;9.214;2024-01-30T10:55:47;7.07;;;5.37;;
1026;SDS011;502;48.746;9.214;2024-01-30T10:58:15;5.33;;;4.83;;
1026;SDS011;502;48.746;9.214;2024-01-30T11:00:41;8.83;;;5.20;;
1026;SDS011;502;48.746;9.214;2024-01-30T11:03:10;7.80;;;5.07;;
1026;SDS011;502;48.746;9.214;2024-01-30T11:05:40;5.93;;;4.53;;
1026;SDS011;502;48.746;9.214;2024-01-30T11:08:10;5.43;;;4.30;;
1026;SDS011;502;48.746;9.214;2024-01-30T11:10:44;5.60;;;4.53;;
1026;SDS011;502;48.746;9.214;2024-01-30T11:13:12;6.90;;;5.07;;
1026;SDS011;502;48.746;9.214;2024-01-30T11:15:40;6.03;;;4.80;;
1026;SDS011;502;48.746;9.214;2024-01-30T11:18:06;8.57;;;4.80;;
1026;SDS011;502;48.746;9.214;2024-01-30T11:20:34;6.13;;;5.37;;
1026;SDS011;502;48.746;9.214;2024-01-30T11:23:01;7.47;;;5.83;;
1026;SDS011;502;48.746;9.214;2024-01-30T11:25:31;5.77;;;5.20;;
1026;SDS011;502;48.746;9.214;2024-01-30T11:27:59;6.70;;;5.10;;
1026;SDS011;502;48.746;9.214;2024-01-30T11:30:26;7.73;;;5.33;;
1026;SDS011;502;48.746;9.214;2024-01-30T11:33:00;6.13;;;5.40;;
1026;SDS011;502;48.746;9.214;2024-01-30T11:35:29;5.67;;;4.67;;
1026;SDS011;502;48.746;9.214;2024-01-30T11:38:01;8.20;;;5.77;;
1026;SDS011;502;48.746;9.214;2024-01-30T11:40:28;6.20;;;5.00;;
1026;SDS011;502;48.746;9.214;2024-01-30T11:42:56;8.00;;;5.30;;
1026;SDS011;502;48.746;9.214;2024-01-30T11:45:24;6.10;;;5.37;;
1026;SDS011;502;48.746;9.214;2024-01-30T11:47:52;7.93;;;5.80;;
1026;SDS011;502;48.746;9.214;2024-01-30T11:50:19;7.70;;;5.73;;
1026;SDS011;502;48.746;9.214;2024-01-30T11:52:45;6.20;;;5.50;;
1026;SDS011;502;48.746;9.214;2024-01-30T11:55:13;7.30;;;5.40;;
1026;SDS011;502;48.746;9.214;2024-01-30T11:57:40;6.07;;;5.47;;
1026;SDS011;502;48.746;9.214;2024-01-30T12:00:14;8.00;;;5.70;;
1026;SDS011;502;48.746;9.214;2024-01-30T12:02:41;6.70;;;5.50;;
1026;SDS011;502;48.746;9.214;2024-01-30T12:05:08;6.80;;;6.00;;
1026;SDS011;502;48.746;9.214;2024-01-30T12:07:35;7.30;;;5.47;;
1026;SDS011;502;48.746;9.214;2024-01-30T12:10:02;7.80;;;6.10;;
1026;SDS011;502;48.746;9.214;2024-01-30T12:12:32;7.03;;;5.67;;
1026;SDS011;502;48.746;9.214;2024-01-30T12:14:58;8.20;;;6.80;;
1026;SDS011;502;48.746;9.214;2024-01-30T12:17:28;6.70;;;6.00;;
1026;SDS011;502;48.746;9.214;2024-01-30T12:20:02;5.77;;;5.23;;
1026;SDS011;502;48.746;9.214;2024-01-30T12:22:29;8.27;;;6.77;;
1026;SDS011;502;48.746;9.214;2024-01-30T12:24:56;6.70;;;5.60;;
1026;SDS011;502;48.746;9.214;2024-01-30T12:27:23;7.10;;;5.57;;
1026;SDS011;502;48.746;9.214;2024-01-30T12:29:56;6.97;;;5.00;;
1026;SDS011;502;48.746;9.214;2024-01-30T12:32:23;9.07;;;6.70;;
1026;SDS011;502;48.746;9.214;2024-01-30T12:34:50;7.43;;;5.07;;
1026;SDS011;502;48.746;9.214;2024-01-30T12:37:17;5.73;;;5.07;;
1026;SDS011;502;48.746;9.214;2024-01-30T12:39:47;7.80;;;5.00;;
1026;SDS011;502;48.746;9.214;2024-01-30T12:42:14;6.10;;;5.50;;
1026;SDS011;502;48.746;9.214;2024-01-30T12:44:41;6.53;;;4.77;;
1026;SDS011;502;48.746;9.214;2024-01-30T12:47:09;6.23;;;4.50;;
1026;SDS011;502;48.746;9.214;2024-01-30T12:49:36;7.23;;;4.80;;
1026;SDS011;502;48.746;9.214;2024-01-30T12:52:03;8.00;;;4.93;;
1026;SDS011;502;48.746;9.214;2024-01-30T12:54:33;6.10;;;5.00;;
1026;SDS011;502;48.746;9.214;2024-01-30T12:57:00;6.03;;;5.43;;
1026;SDS011;502;48.746;9.214;2024-01-30T12:59:26;5.50;;;4.80;;
1026;SDS011;502;48.746;9.214;2024-01-30T13:01:53;8.87;;;5.00;;
1026;SDS011;502;48.746;9.214;2024-01-30T13:04:21;10.67;;;6.43;;
1026;SDS011;502;48.746;9.214;2024-01-30T13:06:49;7.73;;;5.40;;
1026;SDS011;502;48.746;9.214;2024-01-30T13:09:16;6.20;;;5.70;;
1026;SDS011;502;48.746;9.214;2024-01-30T13:11:42;6.20;;;5.60;;
1026;SDS011;502;48.746;9.214;2024-01-30T13:14:09;7.70;;;5.30;;
1026;SDS011;502;48.746;9.214;2024-01-30T13:16:35;8.03;;;5.33;;
1026;SDS011;502;48.746;9.214;2024-01-30T13:19:02;5.20;;;4.40;;
1026;SDS011;502;48.746;9.214;2024-01-30T13:21:30;5.40;;;4.17;;
1026;SDS011;502;48.746;9.214;2024-01-30T13:23:57;6.97;;;4.83;;
1026;SDS011;502;48.746;9.214;2024-01-30T13:26:24;5.20;;;4.20;;
1026;SDS011;502;48.746;9.214;2024-01-30T13:28:50;5.87;;;4.17;;
1026;SDS011;502;48.746;9.214;2024-01-30T13:31:17;3.77;;;3.47;;
1026;SDS011;502;48.746;9.214;2024-01-30T13:33:44;5.83;;;3.80;;
1026;SDS011;502;48.746;9.214;2024-01-30T13:36:11;7.00;;;4.03;;
1026;SDS011;502;48.746;9.214;2024-01-30T13:38:39;5.70;;;4.27;;
1026;SDS011;502;48.746;9.214;2024-01-30T13:41:06;5.00;;;3.80;;
1026;SDS011;502;48.746;9.214;2024-01-30T13:43:33;6.80;;;4.23;;
1026;SDS011;502;48.746;9.214;2024-01-30T13:45:59;5.00;;;3.73;;
1026;SDS011;502;48.746;9.214;2024-01-30T13:48:26;7.13;;;5.30;;
1026;SDS011;502;48.746;9.214;2024-01-30T13:50:53;5.37;;;4.60;;
1026;SDS011;502;48.746;9.214;2024-01-30T13:53:20;5.57;;;4.10;;
1026;SDS011;502;48.746;9.214;2024-01-30T13:55:48;5.33;;;4.43;;
1026;SDS011;502;48.746;9.214;2024-01-30T13:58:14;5.73;;;4.83;;
1026;SDS011;502;48.746;9.214;2024-01-30T14:00:41;4.87;;;4.20;;
1026;SDS011;502;48.746;9.214;2024-01-30T14:03:07;4.90;;;3.87;;
1026;SDS011;502;48.746;9.214;2024-01-30T14:05:34;5.47;;;4.30;;
1026;SDS011;502;48.746;9.214;2024-01-30T14:08:01;6.70;;;4.50;;
1026;SDS011;502;48.746;9.214;2024-01-30T14:10:28;6.90;;;5.30;;
1026;SDS011;502;48.746;9.214;2024-01-30T14:12:56;8.20;;;4.70;;
1026;SDS011;502;48.746;9.214;2024-01-30T14:15:23;4.87;;;4.37;;
1026;SDS011;502;48.746;9.214;2024-01-30T14:17:49;8.10;;;4.23;;
1026;SDS011;502;48.746;9.214;2024-01-30T14:20:16;9.50;;;5.17;;
1026;SDS011;502;48.746;9.214;2024-01-30T14:22:43;4.77;;;4.27;;
1026;SDS011;502;48.746;9.214;2024-01-30T14:25:09;4.23;;;3.83;;
1026;SDS011;502;48.746;9.214;2024-01-30T14:27:37;8.17;;;4.27;;
1026;SDS011;502;48.746;9.214;2024-01-30T14:30:06;5.93;;;4.10;;
1026;SDS011;502;48.746;9.214;2024-01-30T14:32:33;5.17;;;4.47;;
1026;SDS011;502;48.746;9.214;2024-01-30T14:35:00;5.10;;;4.60;;
1026;SDS011;502;48.746;9.214;2024-01-30T14:37:26;7.40;;;5.20;;
1026;SDS011;502;48.746;9.214;2024-01-30T14:39:55;7.23;;;4.70;;
1026;SDS011;502;48.746;9.214;2024-01-30T14:42:21;8.33;;;4.63;;
1026;SDS011;502;48.746;9.214;2024-01-30T14:44:48;6.17;;;5.57;;
1026;SDS011;502;48.746;9.214;2024-01-30T14:47:16;5.47;;;4.80;;
1026;SDS011;502;48.746;9.214;2024-01-30T14:49:43;6.00;;;5.40;;
1026;SDS011;502;48.746;9.214;2024-01-30T14:52:10;8.00;;;4.87;;
1026;SDS011;502;48.746;9.214;2024-01-30T14:54:36;5.90;;;4.63;;
1026;SDS011;502;48.746;9.214;2024-01-30T14:57:03;10.50;;;5.30;;
1026;SDS011;502;48.746;9.214;2024-01-30T14:59:30;6.93;;;4.70;;
1026;SDS011;502;48.746;9.214;2024-01-30T15:01:58;6.67;;;3.87;;
1026;SDS011;502;48.746;9.214;2024-01-30T15:04:26;5.67;;;4.53;;
1026;SDS011;502;48.746;9.214;2024-01-30T15:06:53;4.40;;;4.00;;
1026;SDS011;502;48.746;9.214;2024-01-30T15:09:19;5.87;;;5.37;;
1026;SDS011;502;48.746;9.214;2024-01-30T15:11:47;5.87;;;5.30;;
1026;SDS011;502;48.746;9.214;2024-01-30T15:14:15;6.20;;;5.67;;
1026;SDS011;502;48.746;9.214;2024-01-30T15:16:42;6.07;;;5.47;;
1026;SDS011;502;48.746;9.214;2024-01-30T15:19:08;11.03;;;7.90;;
1026;SDS011;502;48.746;9.214;2024-01-30T15:21:36;14.53;;;10.60;;
1026;SDS011;502;48.746;9.214;2024-01-30T15:24:03;11.10;;;8.60;;